Time;durP1;ratioP1;P1;durP2;ratioP2;P2;SDS_P1;SDS_P2;PMS_P1;PMS_P2;Temp;Humidity;BMP_temperature;BMP_pressure;BME280_temperature;BME280_humidity;BME280_pressure;Samples;Min_cycle;Max_cycle;Signal;HPM_P1;HPM_P2
2020/12/31 00:01:53;;;;;;;14.13;10.10;;;17.60;55.30;;;;;;5085136;28;20193;-58
2020/12/31 00:04:19;;;;;;;13.45;8.85;;;17.60;55.30;;;;;;5084549;28;20174;-58
2020/12/31 00:06:44;;;;;;;15.35;9.77;;;17.60;55.30;;;;;;5084804;28;20209;-58
2020/12/31 00:09:10;;;;;;;13.15;9.15;;;17.60;55.30;;;;;;5084458;28;20536;-57
2020/12/31 00:11:35;;;;;;;14.15;9.15;;;17.60;55.40;;;;;;5084327;28;20173;-57
2020/12/31 00:14:07;;;;;;;12.35;8.77;;;17.60;55.30;;;;;;5084590;28;20529;-58
2020/12/31 00:16:33;;;;;;;13.50;9.52;;;17.50;55.30;;;;;;5084026;28;20203;-59
2020/12/31 00:18:59;;;;;;;13.73;9.13;;;17.50;55.30;;;;;;5084493;28;20180;-60
2020/12/31 00:21:25;;;;;;;12.60;9.90;;;17.50;55.30;;;;;;5084195;28;20173;-59
2020/12/31 00:23:50;;;;;;;14.82;8.43;;;17.50;55.30;;;;;;5084423;28;20290;-58
2020/12/31 00:26:16;;;;;;;12.85;8.30;;;17.50;56.00;;;;;;5084222;28;20326;-56
2020/12/31 00:28:41;;;;;;;13.32;8.77;;;17.50;55.30;;;;;;5084338;28;20178;-58
2020/12/31 00:31:09;;;;;;;13.38;8.35;;;17.50;55.30;;;;;;5084281;28;20174;-57
2020/12/31 00:33:34;;;;;;;11.30;8.48;;;17.50;55.30;;;;;;5084670;28;20170;-56
2020/12/31 00:36:00;;;;;;;12.82;8.45;;;17.40;55.20;;;;;;5084121;28;20685;-56
2020/12/31 00:38:25;;;;;;;12.55;7.90;;;17.50;55.30;;;;;;5084352;28;20206;-58
2020/12/31 00:40:52;;;;;;;10.43;7.30;;;17.40;55.30;;;;;;5084248;28;20178;-56
2020/12/31 00:43:18;;;;;;;10.13;7.97;;;17.40;55.30;;;;;;5084288;28;20591;-60
2020/12/31 00:45:43;;;;;;;11.60;8.05;;;17.40;55.20;;;;;;5084237;28;20176;-57
2020/12/31 00:48:09;;;;;;;9.57;7.65;;;17.40;55.20;;;;;;5084051;28;20666;-57
2020/12/31 00:50:34;;;;;;;14.90;8.10;;;17.30;55.20;;;;;;5084118;28;20511;-57
2020/12/31 00:53:00;;;;;;;9.93;6.97;;;17.30;55.20;;;;;;5084177;28;20242;-55
2020/12/31 00:55:26;;;;;;;10.00;6.85;;;17.40;55.30;;;;;;5087270;28;20182;-59
2020/12/31 00:57:52;;;;;;;9.98;7.40;;;17.30;55.20;;;;;;5087958;28;20182;-58
2020/12/31 01:00:18;;;;;;;9.88;6.95;;;17.30;55.30;;;;;;5088248;28;20182;-56
2020/12/31 01:02:43;;;;;;;10.93;7.05;;;17.30;55.20;;;;;;5088319;28;20219;-58
2020/12/31 01:05:09;;;;;;;10.52;7.15;;;17.30;55.80;;;;;;5088059;28;20170;-56
2020/12/31 01:07:34;;;;;;;8.75;7.40;;;17.30;55.10;;;;;;5088250;28;20209;-57
2020/12/31 01:10:01;;;;;;;9.57;7.25;;;17.20;55.10;;;;;;5088286;28;20631;-60
2020/12/31 01:12:28;;;;;;;9.80;7.45;;;17.30;55.10;;;;;;5088321;28;20260;-58
2020/12/31 01:14:54;;;;;;;10.52;7.07;;;17.20;55.10;;;;;;5070317;28;20177;-60
2020/12/31 01:17:19;;;;;;;8.75;6.60;;;17.20;55.10;;;;;;5088230;28;20176;-59
2020/12/31 01:19:45;;;;;;;8.43;6.65;;;17.20;55.10;;;;;;5087960;28;20257;-58
2020/12/31 01:22:11;;;;;;;7.97;5.93;;;17.20;55.00;;;;;;5088094;28;20192;-58
2020/12/31 01:24:36;;;;;;;9.20;6.38;;;17.20;55.10;;;;;;5087716;28;20197;-58
2020/12/31 01:27:02;;;;;;;8.77;6.15;;;17.20;55.00;;;;;;5087903;28;20250;-59
2020/12/31 01:29:28;;;;;;;7.72;6.40;;;17.10;55.00;;;;;;5087912;28;20182;-58
2020/12/31 01:31:53;;;;;;;8.30;6.30;;;17.20;55.10;;;;;;5087797;28;20178;-58
2020/12/31 01:34:19;;;;;;;7.47;6.28;;;17.10;55.00;;;;;;5087578;28;20687;-57
2020/12/31 01:36:44;;;;;;;9.10;6.53;;;17.10;55.10;;;;;;5087475;28;20610;-59
2020/12/31 01:39:10;;;;;;;8.30;6.03;;;17.10;55.00;;;;;;5087573;28;20189;-60
2020/12/31 01:41:36;;;;;;;7.97;6.28;;;17.10;55.00;;;;;;5087689;28;20185;-59
2020/12/31 01:44:06;;;;;;;6.78;5.72;;;17.00;55.00;;;;;;5087760;28;20178;-59
2020/12/31 01:46:32;;;;;;;7.50;5.72;;;17.10;55.00;;;;;;5087803;28;20201;-58
2020/12/31 01:48:58;;;;;;;7.60;5.47;;;17.10;55.00;;;;;;5087319;28;20170;-58
2020/12/31 01:51:24;;;;;;;8.88;6.10;;;17.10;55.00;;;;;;5069656;28;20174;-57
2020/12/31 01:53:56;;;;;;;6.32;5.35;;;17.00;55.00;;;;;;5069224;28;20546;-58
2020/12/31 01:56:33;;;;;;;8.90;5.78;;;17.00;54.90;;;;;;5087689;28;20177;-59
2020/12/31 01:58:59;;;;;;;6.68;5.20;;;17.00;54.90;;;;;;5070944;28;20170;-55
2020/12/31 02:01:25;;;;;;;7.05;6.00;;;17.00;54.90;;;;;;5087133;28;20693;-56
2020/12/31 02:03:52;;;;;;;7.88;5.53;;;17.00;54.90;;;;;;5068953;28;20683;-55
2020/12/31 02:06:17;;;;;;;6.13;5.07;;;17.00;55.00;;;;;;5085692;28;20227;-57
2020/12/31 02:08:44;;;;;;;7.43;5.18;;;17.00;55.00;;;;;;5052134;28;20178;-55
2020/12/31 02:11:13;;;;;;;5.85;5.25;;;17.00;54.90;;;;;;5087187;28;20181;-56
2020/12/31 02:13:39;;;;;;;6.95;4.95;;;17.00;54.90;;;;;;5087075;28;20186;-57
2020/12/31 02:16:04;;;;;;;5.15;4.63;;;17.00;54.90;;;;;;5086507;28;20231;-58
2020/12/31 02:18:30;;;;;;;8.15;5.50;;;16.90;54.90;;;;;;5086786;28;20178;-58
2020/12/31 02:20:56;;;;;;;6.28;4.68;;;17.00;54.90;;;;;;5086407;28;20170;-59
2020/12/31 02:23:21;;;;;;;5.05;4.50;;;16.90;54.90;;;;;;5052155;28;20582;-57
2020/12/31 02:25:47;;;;;;;7.35;4.82;;;16.90;54.90;;;;;;5068447;28;20250;-56
2020/12/31 02:28:12;;;;;;;6.90;4.93;;;16.90;54.90;;;;;;5086369;28;20205;-57
2020/12/31 02:30:38;;;;;;;6.25;5.15;;;16.90;54.90;;;;;;5086485;28;20170;-54
2020/12/31 02:33:03;;;;;;;6.57;4.65;;;16.90;54.90;;;;;;5086723;28;20704;-56
2020/12/31 02:35:29;;;;;;;8.45;5.80;;;16.90;54.80;;;;;;5086653;28;20188;-56
2020/12/31 02:37:54;;;;;;;6.85;4.68;;;16.90;54.90;;;;;;5086170;28;20185;-59
2020/12/31 02:40:20;;;;;;;5.25;4.15;;;16.90;54.90;;;;;;5085981;28;20637;-58
2020/12/31 02:42:45;;;;;;;5.05;4.35;;;16.80;54.80;;;;;;5086274;28;20609;-59
2020/12/31 02:45:11;;;;;;;6.75;4.63;;;16.80;54.90;;;;;;5086219;28;20221;-59
2020/12/31 02:47:39;;;;;;;6.00;4.50;;;16.80;54.80;;;;;;5086298;28;20212;-59
2020/12/31 02:50:04;;;;;;;5.90;4.32;;;16.80;54.80;;;;;;5086448;28;20247;-59
2020/12/31 02:52:30;;;;;;;4.72;4.10;;;16.80;54.90;;;;;;5086280;28;20205;-59
2020/12/31 02:54:55;;;;;;;5.47;4.57;;;16.80;54.90;;;;;;5086195;28;20196;-57
2020/12/31 02:57:21;;;;;;;4.55;4.15;;;16.80;54.90;;;;;;5085981;28;20174;-56
2020/12/31 02:59:46;;;;;;;5.15;4.05;;;16.80;54.90;;;;;;5085660;28;20228;-58
2020/12/31 03:02:12;;;;;;;5.63;4.07;;;16.80;54.90;;;;;;5086152;28;20189;-57
2020/12/31 03:04:37;;;;;;;5.25;4.10;;;16.70;54.80;;;;;;5086194;28;20181;-56
2020/12/31 03:07:03;;;;;;;6.07;4.40;;;16.70;54.90;;;;;;5086042;28;20215;-57
2020/12/31 03:09:29;;;;;;;4.32;3.90;;;16.80;54.90;;;;;;5085734;28;20558;-56
2020/12/31 03:11:54;;;;;;;4.57;3.88;;;16.70;54.90;;;;;;5085828;28;20538;-57
2020/12/31 03:14:20;;;;;;;5.32;4.50;;;16.70;54.80;;;;;;5085833;28;20178;-58
2020/12/31 03:16:45;;;;;;;5.13;4.28;;;16.70;54.90;;;;;;5085993;28;20186;-59
2020/12/31 03:19:11;;;;;;;5.30;3.67;;;16.70;54.80;;;;;;5085663;28;20170;-57
2020/12/31 03:21:36;;;;;;;4.07;3.67;;;16.70;54.80;;;;;;5085498;28;20173;-58
2020/12/31 03:24:02;;;;;;;5.88;3.88;;;16.70;54.90;;;;;;5085342;28;20173;-57
2020/12/31 03:26:27;;;;;;;4.28;3.67;;;16.60;54.80;;;;;;5085332;28;20206;-57
2020/12/31 03:28:53;;;;;;;4.80;3.97;;;16.70;54.90;;;;;;5085049;28;20311;-55
2020/12/31 03:31:18;;;;;;;5.35;4.22;;;16.70;54.80;;;;;;5085302;28;20280;-57
2020/12/31 03:33:44;;;;;;;3.60;3.10;;;16.70;54.80;;;;;;5085435;28;20642;-58
2020/12/31 03:36:09;;;;;;;5.05;4.03;;;16.60;54.80;;;;;;5085276;28;20542;-55
2020/12/31 03:38:35;;;;;;;5.63;3.90;;;16.70;54.90;;;;;;5085117;28;21021;-56
2020/12/31 03:41:00;;;;;;;3.80;3.38;;;16.60;54.80;;;;;;5085139;28;20524;-59
2020/12/31 03:43:26;;;;;;;3.65;3.33;;;16.60;54.80;;;;;;5085044;28;20293;-55
2020/12/31 03:45:51;;;;;;;4.82;4.00;;;16.60;54.80;;;;;;5084984;28;20181;-59
2020/12/31 03:48:17;;;;;;;4.30;3.63;;;16.60;54.80;;;;;;5084911;28;20624;-56
2020/12/31 03:50:43;;;;;;;4.68;3.45;;;16.60;54.80;;;;;;5085192;28;20177;-57
2020/12/31 03:53:08;;;;;;;4.32;3.33;;;16.60;54.80;;;;;;5084963;28;20627;-53
2020/12/31 03:55:34;;;;;;;4.30;3.45;;;16.60;54.80;;;;;;5084808;28;20635;-56
2020/12/31 03:58:00;;;;;;;3.70;3.20;;;16.60;54.80;;;;;;5084853;28;20237;-52
2020/12/31 04:00:25;;;;;;;3.72;3.10;;;16.60;54.90;;;;;;5084562;28;20182;-54
2020/12/31 04:02:51;;;;;;;4.63;3.42;;;16.50;54.80;;;;;;5084962;28;20588;-57
2020/12/31 04:05:16;;;;;;;4.03;3.63;;;16.60;54.80;;;;;;5084838;28;20180;-58
2020/12/31 04:07:42;;;;;;;4.78;3.30;;;16.60;54.80;;;;;;5084598;28;20212;-58
2020/12/31 04:10:08;;;;;;;5.03;3.50;;;16.50;54.80;;;;;;5084679;28;20286;-55
2020/12/31 04:12:33;;;;;;;3.50;3.00;;;16.50;54.80;;;;;;5084728;28;20226;-59
2020/12/31 04:14:59;;;;;;;3.42;3.13;;;16.50;54.80;;;;;;5084886;28;20261;-60
2020/12/31 04:17:24;;;;;;;3.90;3.08;;;16.40;54.70;;;;;;5084998;28;20223;-59
2020/12/31 04:19:50;;;;;;;3.30;3.00;;;16.50;54.80;;;;;;5084700;28;20176;-58
2020/12/31 04:22:15;;;;;;;4.07;3.17;;;16.50;54.80;;;;;;5084584;28;20677;-60
2020/12/31 04:24:41;;;;;;;2.80;2.60;;;16.50;54.90;;;;;;5084349;28;20190;-60
2020/12/31 04:27:06;;;;;;;4.45;3.25;;;16.50;54.80;;;;;;5084708;28;20602;-59
2020/12/31 04:29:32;;;;;;;4.47;3.38;;;16.50;54.80;;;;;;5084188;28;20174;-55
2020/12/31 04:31:57;;;;;;;4.47;3.53;;;16.50;54.80;;;;;;5084272;28;20253;-57
2020/12/31 04:34:23;;;;;;;3.55;3.15;;;16.50;54.80;;;;;;5084566;28;20178;-58
2020/12/31 04:36:49;;;;;;;2.83;2.60;;;16.50;54.80;;;;;;5084540;28;20199;-58
2020/12/31 04:39:14;;;;;;;3.50;2.50;;;16.50;54.80;;;;;;5084579;28;20174;-59
2020/12/31 04:41:40;;;;;;;3.28;2.97;;;16.40;54.70;;;;;;5084629;28;20174;-59
2020/12/31 04:44:05;;;;;;;2.92;2.70;;;16.50;54.80;;;;;;5084159;28;20241;-56
2020/12/31 04:46:31;;;;;;;3.42;2.80;;;16.40;54.80;;;;;;5049765;28;20236;-56
2020/12/31 04:49:05;;;;;;;3.20;2.90;;;16.40;54.80;;;;;;5084155;28;20207;-55
2020/12/31 04:51:34;;;;;;;3.92;2.97;;;16.40;54.80;;;;;;5067478;28;20169;-57
2020/12/31 04:54:01;;;;;;;3.08;2.65;;;16.40;54.80;;;;;;5066816;28;20192;-56
2020/12/31 04:56:27;;;;;;;2.60;2.40;;;16.40;54.80;;;;;;5084384;28;20173;-57
2020/12/31 04:58:53;;;;;;;3.53;3.08;;;16.30;54.70;;;;;;5049595;28;20181;-53
2020/12/31 05:01:18;;;;;;;3.08;2.60;;;16.40;54.80;;;;;;5049687;28;20272;-58
2020/12/31 05:03:44;;;;;;;2.95;2.65;;;16.30;54.70;;;;;;5084097;28;20249;-57
2020/12/31 05:06:10;;;;;;;3.88;2.75;;;16.40;54.80;;;;;;5084204;28;20291;-59
2020/12/31 05:08:35;;;;;;;2.53;2.33;;;16.40;54.80;;;;;;5049837;28;20219;-54
2020/12/31 05:11:01;;;;;;;3.17;2.80;;;16.30;54.70;;;;;;5084014;28;20199;-56
2020/12/31 05:13:27;;;;;;;3.03;2.45;;;16.30;54.70;;;;;;5083591;28;20184;-59
2020/12/31 05:15:52;;;;;;;2.92;2.60;;;16.30;54.70;;;;;;5066172;28;20181;-59
2020/12/31 05:18:19;;;;;;;2.75;2.47;;;16.30;55.30;;;;;;5083893;28;20190;-60
2020/12/31 05:20:48;;;;;;;3.08;2.65;;;16.30;54.70;;;;;;5084082;28;20524;-58
2020/12/31 05:23:15;;;;;;;3.33;2.70;;;16.30;54.70;;;;;;5084051;28;20174;-59
2020/12/31 05:25:40;;;;;;;2.60;2.40;;;16.30;54.70;;;;;;5084026;28;20208;-58
2020/12/31 05:28:25;;;;;;;3.03;2.47;;;16.30;54.70;;;;;;5083764;28;20582;-56
2020/12/31 05:30:52;;;;;;;2.70;2.42;;;16.30;54.70;;;;;;5084081;28;20178;-54
2020/12/31 05:33:30;;;;;;;2.90;2.70;;;16.30;54.70;;;;;;5083915;28;20188;-55
2020/12/31 05:36:21;;;;;;;2.90;2.28;;;16.20;54.70;;;;;;5083752;28;20178;-58
2020/12/31 05:39:02;;;;;;;2.60;2.28;;;16.20;54.70;;;;;;5084187;28;20170;-59
2020/12/31 05:41:29;;;;;;;2.97;2.75;;;16.20;54.70;;;;;;5086320;28;20614;-55
2020/12/31 05:43:59;;;;;;;2.63;2.33;;;16.20;55.30;;;;;;5087511;28;20174;-60
2020/12/31 05:46:25;;;;;;;2.78;2.30;;;16.20;54.60;;;;;;5086943;28;20210;-52
2020/12/31 05:49:10;;;;;;;2.22;2.00;;;16.20;54.70;;;;;;5087403;28;20174;-58
2020/12/31 05:51:36;;;;;;;3.80;2.28;;;16.20;54.70;;;;;;5087825;28;20174;-56
2020/12/31 05:54:06;;;;;;;2.67;2.25;;;16.20;54.60;;;;;;5087563;28;20631;-57
2020/12/31 05:56:32;;;;;;;2.58;2.38;;;16.20;54.70;;;;;;5087020;28;20506;-57
2020/12/31 05:59:04;;;;;;;2.97;2.17;;;16.20;54.60;;;;;;5087060;28;20534;-55
2020/12/31 06:01:30;;;;;;;2.13;1.70;;;16.20;54.80;;;;;;5069767;28;20619;-57
2020/12/31 06:03:55;;;;;;;2.80;2.15;;;16.20;54.80;;;;;;5087016;28;20181;-55
2020/12/31 06:06:21;;;;;;;2.17;1.95;;;16.30;54.90;;;;;;5052056;28;20217;-56
2020/12/31 06:08:54;;;;;;;2.42;2.22;;;16.40;55.60;;;;;;5087294;28;20624;-56
2020/12/31 06:11:29;;;;;;;2.30;1.90;;;16.50;54.90;;;;;;5086820;28;20196;-54
2020/12/31 06:13:55;;;;;;;2.13;1.92;;;16.70;54.80;;;;;;5069897;28;20239;-58
2020/12/31 06:16:20;;;;;;;1.90;1.80;;;16.90;54.60;;;;;;5052322;28;20178;-57
2020/12/31 06:18:46;;;;;;;2.05;1.85;;;17.10;54.30;;;;;;5052296;28;20173;-58
2020/12/31 06:21:13;;;;;;;3.05;2.25;;;17.40;54.60;;;;;;5051878;28;20182;-58
2020/12/31 06:23:39;;;;;;;1.75;1.65;;;17.60;53.50;;;;;;5068676;28;20178;-58
2020/12/31 06:26:13;;;;;;;1.70;1.60;;;17.80;52.90;;;;;;5086675;28;20556;-56
2020/12/31 06:28:46;;;;;;;2.05;1.88;;;18.10;52.70;;;;;;5086738;28;20650;-56
2020/12/31 06:31:11;;;;;;;2.10;1.90;;;18.00;52.40;;;;;;5086198;28;20187;-54
2020/12/31 06:33:49;;;;;;;2.42;2.00;;;18.20;52.30;;;;;;5086299;28;20178;-56
2020/12/31 06:36:15;;;;;;;1.70;1.60;;;18.30;52.20;;;;;;5069083;28;20205;-57
2020/12/31 06:38:47;;;;;;;1.88;1.70;;;18.30;52.10;;;;;;5051843;28;20193;-59
2020/12/31 06:41:31;;;;;;;2.05;1.90;;;18.40;52.00;;;;;;5086484;28;20181;-59
2020/12/31 06:44:13;;;;;;;1.85;1.60;;;18.50;51.90;;;;;;5086464;28;20535;-59
2020/12/31 06:46:47;;;;;;;2.70;1.88;;;18.50;51.90;;;;;;5086163;28;20270;-58
2020/12/31 06:49:12;;;;;;;1.50;1.40;;;18.50;51.80;;;;;;5086493;28;20170;-56
2020/12/31 06:51:38;;;;;;;1.85;1.65;;;18.50;51.90;;;;;;5085824;28;20287;-57
2020/12/31 06:54:04;;;;;;;2.42;1.55;;;18.60;51.90;;;;;;5086321;28;20265;-57
2020/12/31 06:56:44;;;;;;;1.65;1.55;;;18.50;51.90;;;;;;5086436;28;20665;-57
2020/12/31 06:59:38;;;;;;;1.95;1.65;;;18.50;51.80;;;;;;5085658;28;20174;-58
2020/12/31 07:02:10;;;;;;;1.50;1.40;;;18.50;52.00;;;;;;5082358;28;20186;-56
2020/12/31 07:04:41;;;;;;;1.67;1.58;;;18.40;52.20;;;;;;5085430;28;21016;-58
2020/12/31 07:07:19;;;;;;;1.42;1.20;;;18.30;52.30;;;;;;5068385;28;20221;-57
2020/12/31 07:09:57;;;;;;;1.40;1.30;;;18.20;52.50;;;;;;5086042;28;20502;-57
2020/12/31 07:12:39;;;;;;;1.65;1.50;;;18.10;52.70;;;;;;5085735;28;20639;-58
2020/12/31 07:15:05;;;;;;;1.60;1.50;;;18.10;52.80;;;;;;5085666;28;20170;-58
2020/12/31 07:17:34;;;;;;;1.52;1.27;;;18.10;52.90;;;;;;5085650;28;20208;-58
2020/12/31 07:20:01;;;;;;;1.60;1.50;;;18.00;53.00;;;;;;5067527;28;20170;-59
2020/12/31 07:22:29;;;;;;;1.30;1.20;;;18.00;53.00;;;;;;5085745;28;20245;-57
2020/12/31 07:25:04;;;;;;;1.30;1.20;;;17.90;53.00;;;;;;5085474;28;20186;-57
2020/12/31 07:27:43;;;;;;;1.55;1.40;;;17.90;53.20;;;;;;5067677;28;20270;-58
2020/12/31 07:30:15;;;;;;;1.35;1.25;;;17.80;53.30;;;;;;5085794;28;20173;-57
2020/12/31 07:32:50;;;;;;;1.20;1.10;;;17.80;53.40;;;;;;5085445;28;20253;-56
2020/12/31 07:35:32;;;;;;;1.40;1.30;;;17.60;53.40;;;;;;5085580;28;20168;-57
2020/12/31 07:38:01;;;;;;;1.70;1.40;;;17.60;53.60;;;;;;5068740;28;20702;-59
2020/12/31 07:40:48;;;;;;;1.15;1.05;;;17.60;53.60;;;;;;5085460;28;20173;-57
2020/12/31 07:43:15;;;;;;;1.55;1.45;;;17.60;53.60;;;;;;5085444;28;20173;-58
2020/12/31 07:45:51;;;;;;;1.92;1.45;;;17.60;53.50;;;;;;5085419;28;20646;-58
2020/12/31 07:48:20;;;;;;;1.48;1.30;;;17.60;53.60;;;;;;5084563;28;20601;-60
2020/12/31 07:50:46;;;;;;;1.35;1.25;;;17.60;53.60;;;;;;5085191;28;20212;-58
2020/12/31 07:53:12;;;;;;;1.40;1.30;;;17.50;53.60;;;;;;5084884;28;20197;-60
2020/12/31 07:55:37;;;;;;;1.20;1.10;;;17.50;53.60;;;;;;5084911;28;20177;-57
2020/12/31 07:58:07;;;;;;;1.20;1.10;;;17.40;53.70;;;;;;5084741;28;20554;-60
2020/12/31 08:00:33;;;;;;;1.58;1.20;;;17.40;53.80;;;;;;5084876;28;20174;-60
2020/12/31 08:02:59;;;;;;;1.27;0.90;;;17.40;54.00;;;;;;5084225;28;20651;-57
2020/12/31 08:05:25;;;;;;;1.52;1.30;;;17.40;54.00;;;;;;5084433;28;20192;-55
2020/12/31 08:07:52;;;;;;;1.33;1.23;;;17.40;53.90;;;;;;5084419;28;20551;-55
2020/12/31 08:10:18;;;;;;;1.35;1.25;;;17.40;53.80;;;;;;5084481;28;20189;-57
2020/12/31 08:12:52;;;;;;;1.85;1.20;;;17.40;53.80;;;;;;5084425;28;20574;-57
2020/12/31 08:15:20;;;;;;;1.67;1.20;;;17.40;53.80;;;;;;5084593;28;21049;-52
2020/12/31 08:17:51;;;;;;;1.55;1.20;;;17.40;53.80;;;;;;5084724;28;20180;-59
2020/12/31 08:20:17;;;;;;;1.10;1.00;;;17.30;53.80;;;;;;5050169;28;20197;-56
2020/12/31 08:22:43;;;;;;;1.15;1.00;;;17.30;53.90;;;;;;5066365;28;20646;-58
2020/12/31 08:25:10;;;;;;;1.48;1.30;;;17.20;53.90;;;;;;5066007;28;20197;-58
2020/12/31 08:27:37;;;;;;;0.93;0.93;;;17.20;54.00;;;;;;5084115;28;20217;-57
2020/12/31 08:30:04;;;;;;;1.00;1.00;;;17.20;54.10;;;;;;5066646;28;20269;-58
2020/12/31 08:32:30;;;;;;;1.13;1.02;;;17.20;54.10;;;;;;5084315;28;20180;-59
2020/12/31 08:34:56;;;;;;;0.80;0.80;;;17.20;54.10;;;;;;5049730;28;20367;-57
2020/12/31 08:37:23;;;;;;;2.08;1.35;;;17.30;54.10;;;;;;5083956;28;20213;-57
2020/12/31 08:39:52;;;;;;;1.33;1.10;;;17.30;54.00;;;;;;5084579;28;20173;-56
2020/12/31 08:42:19;;;;;;;1.13;1.05;;;17.30;54.00;;;;;;5084054;28;20187;-59
2020/12/31 08:44:45;;;;;;;1.05;1.05;;;17.30;54.00;;;;;;5083929;28;20178;-58
2020/12/31 08:47:18;;;;;;;1.08;0.95;;;17.30;54.00;;;;;;5049628;28;20216;-65
2020/12/31 08:49:51;;;;;;;2.28;0.80;;;17.20;54.40;;;;;;5049959;28;20173;-65
2020/12/31 08:52:17;;;;;;;1.75;1.20;;;17.10;54.10;;;;;;5084255;28;20258;-66
2020/12/31 08:54:42;;;;;;;1.92;1.15;;;17.10;54.30;;;;;;5065969;28;20202;-64
2020/12/31 08:57:16;;;;;;;1.95;1.45;;;17.10;54.40;;;;;;5066220;28;20612;-62
2020/12/31 08:59:41;;;;;;;2.58;1.55;;;17.10;54.70;;;;;;5084432;28;20533;-62
2020/12/31 09:02:11;;;;;;;1.85;1.30;;;17.10;54.60;;;;;;5083988;28;20181;-63
2020/12/31 09:04:36;;;;;;;2.00;1.80;;;17.20;54.80;;;;;;5066255;28;20166;-62
2020/12/31 09:07:09;;;;;;;3.10;1.67;;;17.10;54.90;;;;;;5083795;28;20325;-61
2020/12/31 09:09:34;;;;;;;1.52;1.42;;;17.10;55.10;;;;;;5066169;28;20212;-63
2020/12/31 09:12:04;;;;;;;2.17;1.55;;;17.10;55.80;;;;;;5084089;28;20558;-62
2020/12/31 09:14:32;;;;;;;3.85;1.50;;;17.20;55.30;;;;;;5084053;28;20176;-63
2020/12/31 09:16:58;;;;;;;2.05;1.77;;;17.10;55.30;;;;;;5069917;28;20177;-60
2020/12/31 09:19:24;;;;;;;2.25;1.70;;;17.10;55.40;;;;;;5087963;28;20543;-62
2020/12/31 09:21:50;;;;;;;2.95;1.48;;;17.10;55.50;;;;;;5070153;28;20209;-62
2020/12/31 09:24:19;;;;;;;2.42;1.50;;;17.10;55.60;;;;;;5088055;28;20258;-64
2020/12/31 09:26:55;;;;;;;3.30;1.30;;;17.10;55.70;;;;;;5053117;28;20620;-62
2020/12/31 09:29:21;;;;;;;1.75;1.33;;;17.20;55.60;;;;;;5087482;28;20201;-62
2020/12/31 09:31:47;;;;;;;2.03;1.52;;;17.20;55.60;;;;;;5069593;28;20655;-65
2020/12/31 09:34:12;;;;;;;2.45;1.45;;;17.20;55.50;;;;;;5087630;28;20178;-62
2020/12/31 09:36:38;;;;;;;1.75;1.63;;;17.30;55.70;;;;;;5087583;28;20185;-62
2020/12/31 09:39:03;;;;;;;2.22;1.50;;;17.30;55.60;;;;;;5087528;28;20248;-63
2020/12/31 09:41:29;;;;;;;2.65;1.75;;;17.30;55.60;;;;;;5087827;28;20263;-62
2020/12/31 09:43:54;;;;;;;1.80;1.15;;;17.30;55.60;;;;;;5087586;28;20540;-63
2020/12/31 09:46:20;;;;;;;3.13;1.27;;;17.20;55.60;;;;;;5087716;28;20180;-63
2020/12/31 09:48:47;;;;;;;1.52;1.40;;;17.20;55.80;;;;;;5069483;28;20181;-61
2020/12/31 09:51:12;;;;;;;1.85;1.42;;;17.20;55.80;;;;;;5087361;28;20174;-62
2020/12/31 09:53:38;;;;;;;2.45;1.48;;;17.20;55.80;;;;;;5087336;28;20181;-62
2020/12/31 09:56:04;;;;;;;1.85;1.52;;;17.10;55.80;;;;;;5086882;28;20514;-63
2020/12/31 09:58:29;;;;;;;3.05;1.50;;;17.20;55.80;;;;;;5087433;28;20181;-61
2020/12/31 10:00:55;;;;;;;1.40;1.30;;;17.30;55.70;;;;;;5087487;28;20170;-62
2020/12/31 10:03:20;;;;;;;2.80;1.40;;;17.50;55.50;;;;;;5086980;28;20252;-62
2020/12/31 10:05:46;;;;;;;3.03;1.50;;;17.90;55.00;;;;;;5068708;28;20188;-61
2020/12/31 10:08:12;;;;;;;3.13;1.48;;;18.20;54.40;;;;;;5087226;28;20201;-61
2020/12/31 10:10:37;;;;;;;1.95;1.45;;;18.50;53.80;;;;;;5087187;28;20173;-62
2020/12/31 10:13:03;;;;;;;1.50;1.30;;;18.80;53.30;;;;;;5086151;28;20178;-61
2020/12/31 10:15:28;;;;;;;2.15;1.50;;;19.10;52.90;;;;;;5086275;28;20178;-62
2020/12/31 10:17:54;;;;;;;2.78;1.25;;;19.20;52.50;;;;;;5085993;28;20293;-62
2020/12/31 10:20:20;;;;;;;2.53;1.27;;;19.40;52.30;;;;;;5086423;28;20631;-62
2020/12/31 10:22:45;;;;;;;1.95;1.33;;;19.40;52.20;;;;;;5086815;28;20169;-63
2020/12/31 10:25:11;;;;;;;1.83;1.20;;;19.50;52.00;;;;;;5086564;28;20271;-63
2020/12/31 10:27:36;;;;;;;1.45;1.08;;;19.60;52.10;;;;;;5067479;28;20274;-63
2020/12/31 10:30:03;;;;;;;1.33;1.20;;;19.60;52.00;;;;;;5086747;28;20832;-64
2020/12/31 10:32:29;;;;;;;1.10;1.00;;;19.50;52.10;;;;;;5086295;28;20181;-62
2020/12/31 10:34:55;;;;;;;2.78;1.30;;;19.50;52.20;;;;;;5086480;28;20178;-63
2020/12/31 10:37:20;;;;;;;1.58;1.02;;;19.50;52.30;;;;;;5086598;28;20662;-63
2020/12/31 10:39:46;;;;;;;1.92;1.50;;;19.50;52.40;;;;;;5086332;28;21016;-62
2020/12/31 10:42:11;;;;;;;1.20;0.95;;;19.50;52.50;;;;;;5086430;28;20264;-63
2020/12/31 10:44:37;;;;;;;1.33;1.15;;;19.40;52.60;;;;;;5086496;28;20198;-62
2020/12/31 10:47:02;;;;;;;3.20;1.30;;;19.50;52.50;;;;;;5086119;28;20572;-62
2020/12/31 10:49:28;;;;;;;2.10;1.25;;;19.40;52.70;;;;;;5086150;28;20178;-63
2020/12/31 10:51:53;;;;;;;2.47;0.93;;;19.40;52.70;;;;;;5086141;28;20178;-61
2020/12/31 10:54:19;;;;;;;2.17;0.98;;;19.30;52.70;;;;;;5068308;28;20169;-60
2020/12/31 10:56:44;;;;;;;1.02;0.95;;;19.30;52.80;;;;;;5086005;28;20176;-61
2020/12/31 10:59:10;;;;;;;1.45;1.10;;;19.30;52.80;;;;;;5068269;28;20177;-64
2020/12/31 11:01:36;;;;;;;1.40;1.08;;;19.30;52.90;;;;;;5086036;28;20579;-61
2020/12/31 11:04:01;;;;;;;2.83;1.20;;;19.30;52.80;;;;;;5085838;28;20170;-62
2020/12/31 11:06:27;;;;;;;1.20;1.05;;;19.30;52.80;;;;;;5085923;28;20165;-62
2020/12/31 11:08:53;;;;;;;1.58;1.05;;;19.30;52.90;;;;;;5085955;28;20638;-63
2020/12/31 11:11:22;;;;;;;2.80;1.20;;;19.30;52.80;;;;;;5086246;28;20657;-67
2020/12/31 11:13:49;;;;;;;1.10;1.02;;;19.30;52.80;;;;;;5085931;28;20178;-62
2020/12/31 11:16:14;;;;;;;5.10;1.77;;;19.20;52.90;;;;;;5067439;28;20632;-62
2020/12/31 11:18:43;;;;;;;2.35;1.20;;;19.20;53.30;;;;;;5067840;28;20243;-63
2020/12/31 11:21:09;;;;;;;2.22;1.20;;;19.20;53.20;;;;;;5085582;28;20177;-63
2020/12/31 11:23:35;;;;;;;1.52;1.40;;;19.30;53.20;;;;;;5067682;28;20185;-61
2020/12/31 11:26:01;;;;;;;1.90;1.20;;;19.20;53.30;;;;;;5085341;28;20646;-62
2020/12/31 11:28:27;;;;;;;1.90;1.05;;;19.20;53.40;;;;;;5085468;28;20209;-62
2020/12/31 11:30:52;;;;;;;1.77;1.13;;;19.20;53.30;;;;;;5085470;28;20178;-62
2020/12/31 11:33:18;;;;;;;2.85;1.10;;;19.30;53.40;;;;;;5085607;28;20174;-63
2020/12/31 11:35:44;;;;;;;1.20;1.10;;;19.30;53.40;;;;;;5085371;28;20178;-62
2020/12/31 11:38:10;;;;;;;2.58;1.10;;;19.30;53.30;;;;;;5085204;28;20178;-61
2020/12/31 11:40:35;;;;;;;2.50;0.95;;;19.30;53.30;;;;;;5085194;28;20182;-62
2020/12/31 11:43:01;;;;;;;4.25;1.75;;;19.20;53.40;;;;;;5085491;28;20181;-61
2020/12/31 11:45:27;;;;;;;1.13;1.02;;;19.20;53.50;;;;;;5085461;28;20181;-62
2020/12/31 11:47:52;;;;;;;2.42;1.08;;;19.10;53.60;;;;;;5085210;28;20292;-64
2020/12/31 11:50:18;;;;;;;0.93;0.93;;;19.00;53.80;;;;;;5085244;28;20182;-63
2020/12/31 11:52:43;;;;;;;0.98;0.90;;;19.00;54.60;;;;;;5084945;28;20177;-63
2020/12/31 11:55:09;;;;;;;1.38;1.00;;;18.90;54.10;;;;;;5084834;28;20177;-63
2020/12/31 11:57:35;;;;;;;1.52;1.02;;;18.90;54.10;;;;;;5085247;28;20231;-63
2020/12/31 12:00:00;;;;;;;0.90;0.90;;;19.10;54.20;;;;;;5085222;28;20197;-64
2020/12/31 12:02:26;;;;;;;1.00;0.80;;;18.90;54.10;;;;;;5084899;28;20197;-62
2020/12/31 12:04:51;;;;;;;2.53;0.93;;;18.90;54.20;;;;;;5084898;28;20182;-60
2020/12/31 12:07:17;;;;;;;2.15;0.95;;;19.00;54.10;;;;;;5084760;28;20225;-59
2020/12/31 12:09:44;;;;;;;1.20;1.10;;;19.00;54.10;;;;;;5084856;28;20261;-63
2020/12/31 12:12:10;;;;;;;1.02;0.98;;;19.00;54.00;;;;;;5084862;28;20201;-65
2020/12/31 12:14:35;;;;;;;1.60;1.00;;;18.90;54.00;;;;;;5049995;28;20602;-61
2020/12/31 12:17:01;;;;;;;1.77;0.93;;;18.80;54.00;;;;;;5085019;28;20281;-61
2020/12/31 12:19:27;;;;;;;0.98;0.93;;;18.70;54.00;;;;;;5084669;28;20212;-63
2020/12/31 12:22:00;;;;;;;0.95;0.80;;;18.70;54.30;;;;;;5066421;28;20280;-61
2020/12/31 12:24:26;;;;;;;1.63;1.15;;;18.60;54.30;;;;;;5084615;28;20197;-62
2020/12/31 12:26:52;;;;;;;1.88;1.20;;;18.60;54.50;;;;;;5084573;28;20209;-62
2020/12/31 12:29:17;;;;;;;2.63;1.00;;;18.60;54.60;;;;;;5066661;28;20537;-62
2020/12/31 12:31:43;;;;;;;2.47;1.00;;;18.60;54.60;;;;;;5084451;28;20178;-61
2020/12/31 12:34:08;;;;;;;11.35;1.13;;;18.60;54.60;;;;;;5066552;28;20181;-65
2020/12/31 12:36:34;;;;;;;3.53;1.10;;;18.60;54.50;;;;;;5084448;28;20645;-61
2020/12/31 12:39:00;;;;;;;1.58;1.23;;;18.60;54.50;;;;;;5084345;28;20610;-63
2020/12/31 12:41:26;;;;;;;1.45;1.00;;;18.70;54.50;;;;;;5066229;28;20248;-63
2020/12/31 12:43:52;;;;;;;3.55;1.00;;;18.60;54.50;;;;;;5084481;28;20196;-62
2020/12/31 12:46:18;;;;;;;4.53;1.48;;;18.60;54.50;;;;;;5084397;28;20900;-62